QLK1831 YBMK-YBBN
Flight info
| Callsign | QLK1831 |
|---|---|
| Flight time | 1h 2m |
| Altitude | 37000 |
| Route | MK V153 MUNAR Y61 RUROX Y177 BN |
| Aircraft | A319/M-SDE3FGHIRWY/LB1 |
Departure
| Time | 2026-05-06 08:50 |
|---|---|
| Airport | Mackay Airport (YBMK) |
Arrival
| Time | 2026-05-06 09:53 |
|---|---|
| Airport | Brisbane International Airport (YBBN) |
| Time | Latitude | Longitude | Altitude | Speed | Heading |
|---|---|---|---|---|---|
| 2026-05-06 08:32 | -21.17664 | 149.18305 | 28 ft | 0 kts | 328° |
| 2026-05-06 08:45 | -21.17660 | 149.18308 | 26 ft | 1 kts | 20° |
| 2026-05-06 08:46 | -21.17638 | 149.18328 | 27 ft | 8 kts | 29° |
| 2026-05-06 08:46 | -21.17581 | 149.18309 | 27 ft | 11 kts | 324° |
| 2026-05-06 08:46 | -21.17512 | 149.18263 | 29 ft | 13 kts | 328° |
| 2026-05-06 08:46 | -21.17440 | 149.18260 | 27 ft | 12 kts | 58° |
| 2026-05-06 08:47 | -21.17391 | 149.18341 | 25 ft | 14 kts | 57° |
| 2026-05-06 08:47 | -21.17320 | 149.18417 | 25 ft | 15 kts | 359° |
| 2026-05-06 08:47 | -21.17227 | 149.18357 | 25 ft | 17 kts | 328° |
| 2026-05-06 08:47 | -21.17083 | 149.18261 | 25 ft | 30 kts | 330° |
| 2026-05-06 08:48 | -21.16895 | 149.18135 | 24 ft | 33 kts | 327° |
| 2026-05-06 08:48 | -21.16692 | 149.17998 | 25 ft | 35 kts | 327° |
| 2026-05-06 08:48 | -21.16477 | 149.17852 | 24 ft | 38 kts | 327° |
| 2026-05-06 08:48 | -21.16350 | 149.17740 | 30 ft | 12 kts | 348° |
| 2026-05-06 08:49 | -21.16352 | 149.17769 | 29 ft | 5 kts | 138° |
| 2026-05-06 08:49 | -21.16366 | 149.17778 | 27 ft | 0 kts | 147° |
| 2026-05-06 08:49 | -21.16373 | 149.17783 | 27 ft | 13 kts | 147° |
| 2026-05-06 08:49 | -21.16656 | 149.17974 | 27 ft | 81 kts | 148° |
| 2026-05-06 08:50 | -21.17317 | 149.18419 | 28 ft | 141 kts | 147° |
| 2026-05-06 08:50 | -21.18202 | 149.18996 | 539 ft | 146 kts | 146° |
| 2026-05-06 08:50 | -21.19054 | 149.19585 | 1198 ft | 145 kts | 147° |
| 2026-05-06 08:50 | -21.19896 | 149.20175 | 1840 ft | 147 kts | 145° |
| 2026-05-06 08:51 | -21.20814 | 149.20818 | 2123 ft | 168 kts | 145° |
| 2026-05-06 08:51 | -21.21859 | 149.21543 | 2436 ft | 190 kts | 146° |
| 2026-05-06 08:51 | -21.23054 | 149.22356 | 2753 ft | 217 kts | 150° |
| 2026-05-06 08:51 | -21.24573 | 149.22865 | 3194 ft | 243 kts | 167° |
| 2026-05-06 08:52 | -21.26282 | 149.23240 | 3919 ft | 256 kts | 167° |
| 2026-05-06 08:52 | -21.28048 | 149.23622 | 4853 ft | 261 kts | 167° |
| 2026-05-06 08:52 | -21.29845 | 149.24013 | 5770 ft | 266 kts | 167° |
| 2026-05-06 08:52 | -21.31674 | 149.24413 | 6675 ft | 271 kts | 167° |
| 2026-05-06 08:53 | -21.33537 | 149.24821 | 7529 ft | 275 kts | 167° |
| 2026-05-06 08:53 | -21.35431 | 149.25236 | 8381 ft | 280 kts | 168° |
| 2026-05-06 08:53 | -21.37354 | 149.25657 | 9243 ft | 284 kts | 168° |
| 2026-05-06 08:53 | -21.39309 | 149.26085 | 10062 ft | 289 kts | 169° |
| 2026-05-06 08:54 | -21.41346 | 149.26532 | 10447 ft | 310 kts | 169° |
| 2026-05-06 08:54 | -21.43538 | 149.27015 | 10685 ft | 333 kts | 169° |
| 2026-05-06 08:54 | -21.45858 | 149.27527 | 11156 ft | 345 kts | 169° |
| 2026-05-06 08:54 | -21.48239 | 149.28053 | 11737 ft | 353 kts | 169° |
| 2026-05-06 08:55 | -21.50636 | 149.28766 | 12306 ft | 362 kts | 160° |
| 2026-05-06 08:55 | -21.52976 | 149.29754 | 12859 ft | 369 kts | 159° |
| 2026-05-06 08:55 | -21.55390 | 149.30774 | 13392 ft | 376 kts | 160° |
| 2026-05-06 08:55 | -21.57854 | 149.31813 | 13904 ft | 384 kts | 160° |
| 2026-05-06 08:56 | -21.60359 | 149.32866 | 14388 ft | 389 kts | 160° |
| 2026-05-06 08:56 | -21.62889 | 149.33928 | 14925 ft | 392 kts | 161° |
| 2026-05-06 08:56 | -21.65442 | 149.34999 | 15470 ft | 395 kts | 161° |
| 2026-05-06 08:56 | -21.68016 | 149.36077 | 16017 ft | 399 kts | 161° |
| 2026-05-06 08:57 | -21.70611 | 149.37164 | 16563 ft | 402 kts | 161° |
| 2026-05-06 08:57 | -21.73230 | 149.38262 | 17105 ft | 405 kts | 162° |
| 2026-05-06 08:57 | -21.75868 | 149.39366 | 17661 ft | 409 kts | 162° |
| 2026-05-06 08:57 | -21.78528 | 149.40481 | 18203 ft | 412 kts | 162° |
| 2026-05-06 08:58 | -21.81208 | 149.41606 | 18696 ft | 415 kts | 162° |
| 2026-05-06 08:58 | -21.83909 | 149.42743 | 19188 ft | 418 kts | 162° |
| 2026-05-06 08:58 | -21.86622 | 149.43888 | 19691 ft | 420 kts | 162° |
| 2026-05-06 08:58 | -21.89356 | 149.45045 | 20212 ft | 423 kts | 162° |
| 2026-05-06 08:59 | -21.92100 | 149.46204 | 20678 ft | 426 kts | 162° |
| 2026-05-06 08:59 | -21.94876 | 149.47374 | 21165 ft | 429 kts | 162° |
| 2026-05-06 08:59 | -21.97665 | 149.48547 | 21652 ft | 431 kts | 162° |
| 2026-05-06 08:59 | -22.00435 | 149.49713 | 22133 ft | 434 kts | 162° |
| 2026-05-06 09:00 | -22.03290 | 149.50919 | 22620 ft | 436 kts | 162° |
| 2026-05-06 09:00 | -22.06121 | 149.52115 | 23082 ft | 439 kts | 162° |
| 2026-05-06 09:00 | -22.08932 | 149.53305 | 23526 ft | 441 kts | 162° |
| 2026-05-06 09:00 | -22.11799 | 149.54519 | 23911 ft | 443 kts | 162° |
| 2026-05-06 09:01 | -22.14678 | 149.55735 | 24293 ft | 446 kts | 163° |
| 2026-05-06 09:01 | -22.17610 | 149.56977 | 24674 ft | 448 kts | 163° |
| 2026-05-06 09:01 | -22.20516 | 149.58209 | 25062 ft | 450 kts | 163° |
| 2026-05-06 09:01 | -22.23437 | 149.59448 | 25421 ft | 452 kts | 164° |
| 2026-05-06 09:02 | -22.26337 | 149.60679 | 25778 ft | 455 kts | 164° |
| 2026-05-06 09:02 | -22.29285 | 149.61929 | 26157 ft | 456 kts | 164° |
| 2026-05-06 09:02 | -22.32245 | 149.63188 | 26519 ft | 458 kts | 165° |
| 2026-05-06 09:02 | -22.35257 | 149.64470 | 26891 ft | 460 kts | 165° |
| 2026-05-06 09:03 | -22.38205 | 149.65722 | 27249 ft | 462 kts | 165° |
| 2026-05-06 09:03 | -22.41208 | 149.66995 | 27618 ft | 465 kts | 165° |
| 2026-05-06 09:03 | -22.44226 | 149.68277 | 27982 ft | 467 kts | 165° |
| 2026-05-06 09:03 | -22.47253 | 149.69564 | 28346 ft | 469 kts | 166° |
| 2026-05-06 09:04 | -22.50298 | 149.70857 | 28704 ft | 471 kts | 166° |
| 2026-05-06 09:04 | -22.53358 | 149.72160 | 29090 ft | 473 kts | 166° |
| 2026-05-06 09:04 | -22.56427 | 149.73467 | 29453 ft | 475 kts | 166° |
| 2026-05-06 09:04 | -22.59512 | 149.74783 | 29807 ft | 477 kts | 166° |
| 2026-05-06 09:05 | -22.62610 | 149.76108 | 30147 ft | 480 kts | 167° |
| 2026-05-06 09:05 | -22.65720 | 149.77438 | 30405 ft | 482 kts | 167° |
| 2026-05-06 09:05 | -22.68853 | 149.78776 | 30636 ft | 486 kts | 167° |
| 2026-05-06 09:05 | -22.70940 | 149.79666 | 30773 ft | 488 kts | 167° |
| 2026-05-06 09:06 | -22.74109 | 149.81019 | 31002 ft | 491 kts | 167° |
| 2026-05-06 09:06 | -22.77298 | 149.82381 | 31220 ft | 495 kts | 167° |
| 2026-05-06 09:06 | -22.80515 | 149.83756 | 31431 ft | 498 kts | 167° |
| 2026-05-06 09:06 | -22.83751 | 149.85139 | 31676 ft | 500 kts | 167° |
| 2026-05-06 09:07 | -22.86989 | 149.86527 | 31984 ft | 501 kts | 167° |
| 2026-05-06 09:07 | -22.90240 | 149.87920 | 32263 ft | 502 kts | 167° |
| 2026-05-06 09:07 | -22.94557 | 149.89773 | 32646 ft | 504 kts | 167° |
| 2026-05-06 09:07 | -22.96764 | 149.90720 | 32845 ft | 505 kts | 167° |
| 2026-05-06 09:08 | -23.00034 | 149.92125 | 33131 ft | 506 kts | 167° |
| 2026-05-06 09:08 | -23.03316 | 149.93534 | 33404 ft | 508 kts | 167° |
| 2026-05-06 09:08 | -23.06609 | 149.94946 | 33699 ft | 509 kts | 167° |
| 2026-05-06 09:08 | -23.09863 | 149.96342 | 33988 ft | 511 kts | 167° |
| 2026-05-06 09:09 | -23.13216 | 149.97780 | 34277 ft | 512 kts | 167° |
| 2026-05-06 09:09 | -23.16488 | 149.99183 | 34547 ft | 512 kts | 167° |
| 2026-05-06 09:09 | -23.19802 | 150.00607 | 34844 ft | 512 kts | 167° |
| 2026-05-06 09:09 | -23.23120 | 150.02035 | 35136 ft | 512 kts | 167° |
| 2026-05-06 09:10 | -23.26439 | 150.03466 | 35422 ft | 512 kts | 167° |
| 2026-05-06 09:10 | -23.29752 | 150.04895 | 35727 ft | 512 kts | 167° |
| 2026-05-06 09:10 | -23.33065 | 150.06322 | 36029 ft | 512 kts | 167° |
| 2026-05-06 09:10 | -23.36379 | 150.07755 | 36325 ft | 512 kts | 167° |
| 2026-05-06 09:11 | -23.39687 | 150.09190 | 36582 ft | 512 kts | 166° |
| 2026-05-06 09:11 | -23.42996 | 150.10623 | 36854 ft | 512 kts | 166° |
| 2026-05-06 09:11 | -23.46313 | 150.12057 | 37029 ft | 514 kts | 167° |
| 2026-05-06 09:12 | -23.53039 | 150.14948 | 37050 ft | 525 kts | 167° |
| 2026-05-06 09:12 | -23.59837 | 150.17879 | 37045 ft | 529 kts | 166° |
| 2026-05-06 09:13 | -23.66683 | 150.20854 | 37053 ft | 529 kts | 166° |
| 2026-05-06 09:13 | -23.73532 | 150.23837 | 37050 ft | 529 kts | 166° |
| 2026-05-06 09:14 | -23.80378 | 150.26815 | 37041 ft | 529 kts | 167° |
| 2026-05-06 09:14 | -23.87219 | 150.29777 | 37050 ft | 529 kts | 167° |
| 2026-05-06 09:15 | -23.94060 | 150.32753 | 37053 ft | 529 kts | 167° |
| 2026-05-06 09:15 | -24.00899 | 150.35739 | 37050 ft | 529 kts | 167° |
| 2026-05-06 09:16 | -24.07748 | 150.38728 | 37069 ft | 530 kts | 167° |
| 2026-05-06 09:16 | -24.14556 | 150.41701 | 37067 ft | 530 kts | 167° |
| 2026-05-06 09:17 | -24.21404 | 150.44697 | 37064 ft | 530 kts | 167° |
| 2026-05-06 09:17 | -24.28258 | 150.47706 | 37068 ft | 530 kts | 167° |
| 2026-05-06 09:18 | -24.35104 | 150.50713 | 37071 ft | 530 kts | 167° |
| 2026-05-06 09:18 | -24.41954 | 150.53709 | 37091 ft | 530 kts | 167° |
| 2026-05-06 09:19 | -24.48793 | 150.56789 | 37080 ft | 536 kts | 162° |
| 2026-05-06 09:19 | -24.55207 | 150.61201 | 37072 ft | 546 kts | 153° |
| 2026-05-06 09:20 | -24.61536 | 150.65830 | 37080 ft | 547 kts | 153° |
| 2026-05-06 09:20 | -24.67829 | 150.70426 | 37080 ft | 547 kts | 154° |
| 2026-05-06 09:21 | -24.74174 | 150.75055 | 37081 ft | 547 kts | 154° |
| 2026-05-06 09:21 | -24.80515 | 150.79696 | 37085 ft | 547 kts | 153° |
| 2026-05-06 09:22 | -24.86854 | 150.84346 | 37084 ft | 547 kts | 153° |
| 2026-05-06 09:22 | -24.93182 | 150.88987 | 37082 ft | 547 kts | 153° |
| 2026-05-06 09:23 | -24.99518 | 150.93644 | 37115 ft | 547 kts | 154° |
| 2026-05-06 09:23 | -25.05855 | 150.98310 | 37099 ft | 547 kts | 154° |
| 2026-05-06 09:24 | -25.12150 | 151.02939 | 37090 ft | 547 kts | 154° |
| 2026-05-06 09:24 | -25.18487 | 151.07603 | 37082 ft | 547 kts | 153° |
| 2026-05-06 09:25 | -25.24819 | 151.12276 | 37082 ft | 547 kts | 153° |
| 2026-05-06 09:25 | -25.31148 | 151.16963 | 37085 ft | 548 kts | 153° |
| 2026-05-06 09:26 | -25.37473 | 151.21658 | 37102 ft | 548 kts | 153° |
| 2026-05-06 09:26 | -25.43804 | 151.26358 | 37093 ft | 547 kts | 154° |
| 2026-05-06 09:27 | -25.50138 | 151.31048 | 37081 ft | 547 kts | 154° |
| 2026-05-06 09:27 | -25.56466 | 151.35745 | 37092 ft | 547 kts | 154° |
| 2026-05-06 09:28 | -25.62743 | 151.40419 | 37086 ft | 547 kts | 154° |
| 2026-05-06 09:28 | -25.69061 | 151.45126 | 37104 ft | 547 kts | 154° |
| 2026-05-06 09:29 | -25.75297 | 151.49995 | 37099 ft | 555 kts | 146° |
| 2026-05-06 09:29 | -25.81073 | 151.55713 | 37090 ft | 557 kts | 144° |
| 2026-05-06 09:30 | -25.86848 | 151.61446 | 37100 ft | 557 kts | 144° |
| 2026-05-06 09:30 | -25.92624 | 151.67185 | 37113 ft | 557 kts | 144° |
| 2026-05-06 09:31 | -25.98399 | 151.72943 | 37148 ft | 557 kts | 144° |
| 2026-05-06 09:31 | -26.04168 | 151.78701 | 37115 ft | 558 kts | 144° |
| 2026-05-06 09:32 | -26.09946 | 151.84469 | 37103 ft | 558 kts | 144° |
| 2026-05-06 09:32 | -26.15686 | 151.90204 | 37100 ft | 558 kts | 144° |
| 2026-05-06 09:33 | -26.21476 | 151.95999 | 37110 ft | 559 kts | 144° |
| 2026-05-06 09:33 | -26.27245 | 152.01788 | 36698 ft | 555 kts | 144° |
| 2026-05-06 09:33 | -26.30112 | 152.04673 | 35683 ft | 556 kts | 144° |
| 2026-05-06 09:34 | -26.32984 | 152.07560 | 34722 ft | 555 kts | 144° |
| 2026-05-06 09:34 | -26.35818 | 152.10415 | 34125 ft | 544 kts | 144° |
| 2026-05-06 09:34 | -26.38606 | 152.13224 | 33382 ft | 535 kts | 144° |
| 2026-05-06 09:34 | -26.41345 | 152.15980 | 32705 ft | 526 kts | 144° |
| 2026-05-06 09:35 | -26.44039 | 152.18694 | 32002 ft | 517 kts | 144° |
| 2026-05-06 09:35 | -26.46716 | 152.21388 | 30832 ft | 519 kts | 143° |
| 2026-05-06 09:35 | -26.49407 | 152.24094 | 29582 ft | 520 kts | 142° |
| 2026-05-06 09:35 | -26.52091 | 152.26798 | 28251 ft | 518 kts | 142° |
| 2026-05-06 09:36 | -26.54758 | 152.29488 | 26981 ft | 515 kts | 141° |
| 2026-05-06 09:36 | -26.57370 | 152.32128 | 25784 ft | 511 kts | 141° |
| 2026-05-06 09:36 | -26.59995 | 152.34786 | 24627 ft | 506 kts | 141° |
| 2026-05-06 09:36 | -26.62591 | 152.37416 | 23470 ft | 501 kts | 140° |
| 2026-05-06 09:37 | -26.65153 | 152.40014 | 22167 ft | 494 kts | 140° |
| 2026-05-06 09:37 | -26.67677 | 152.42597 | 20938 ft | 487 kts | 139° |
| 2026-05-06 09:37 | -26.70140 | 152.45143 | 19739 ft | 478 kts | 139° |
| 2026-05-06 09:37 | -26.72552 | 152.47650 | 18589 ft | 468 kts | 138° |
| 2026-05-06 09:38 | -26.74912 | 152.50106 | 17318 ft | 458 kts | 138° |
| 2026-05-06 09:38 | -26.77223 | 152.52506 | 16063 ft | 448 kts | 138° |
| 2026-05-06 09:38 | -26.79484 | 152.54846 | 15150 ft | 434 kts | 138° |
| 2026-05-06 09:38 | -26.81611 | 152.57045 | 15126 ft | 398 kts | 138° |
| 2026-05-06 09:39 | -26.83566 | 152.59069 | 15117 ft | 371 kts | 138° |
| 2026-05-06 09:39 | -26.85442 | 152.61009 | 15117 ft | 365 kts | 138° |
| 2026-05-06 09:39 | -26.87301 | 152.62935 | 15108 ft | 363 kts | 138° |
| 2026-05-06 09:39 | -26.89152 | 152.64849 | 14350 ft | 365 kts | 138° |
| 2026-05-06 09:40 | -26.91038 | 152.66790 | 13314 ft | 369 kts | 138° |
| 2026-05-06 09:40 | -26.92918 | 152.68727 | 12507 ft | 363 kts | 138° |
| 2026-05-06 09:40 | -26.96569 | 152.72499 | 10974 ft | 351 kts | 138° |
| 2026-05-06 09:41 | -26.98307 | 152.74298 | 10674 ft | 330 kts | 137° |
| 2026-05-06 09:41 | -26.99752 | 152.76189 | 10515 ft | 311 kts | 124° |
| 2026-05-06 09:41 | -27.00748 | 152.78291 | 10115 ft | 302 kts | 113° |
| 2026-05-06 09:41 | -27.01559 | 152.80449 | 9573 ft | 298 kts | 113° |
| 2026-05-06 09:42 | -27.02347 | 152.82565 | 9003 ft | 300 kts | 113° |
| 2026-05-06 09:42 | -27.03181 | 152.84804 | 8301 ft | 310 kts | 113° |
| 2026-05-06 09:42 | -27.04002 | 152.87008 | 7854 ft | 310 kts | 113° |
| 2026-05-06 09:42 | -27.04829 | 152.89234 | 7445 ft | 308 kts | 113° |
| 2026-05-06 09:43 | -27.05647 | 152.91438 | 7052 ft | 305 kts | 113° |
| 2026-05-06 09:43 | -27.06462 | 152.93626 | 6658 ft | 303 kts | 113° |
| 2026-05-06 09:43 | -27.07251 | 152.95804 | 6260 ft | 300 kts | 109° |
| 2026-05-06 09:43 | -27.07763 | 152.98070 | 5852 ft | 298 kts | 103° |
| 2026-05-06 09:44 | -27.08224 | 153.00326 | 5458 ft | 295 kts | 103° |
| 2026-05-06 09:44 | -27.08681 | 153.02567 | 5067 ft | 293 kts | 103° |
| 2026-05-06 09:44 | -27.09136 | 153.04781 | 4678 ft | 290 kts | 103° |
| 2026-05-06 09:44 | -27.09589 | 153.06971 | 4298 ft | 287 kts | 104° |
| 2026-05-06 09:45 | -27.10041 | 153.09141 | 3934 ft | 283 kts | 104° |
| 2026-05-06 09:45 | -27.10451 | 153.11292 | 3561 ft | 281 kts | 98° |
| 2026-05-06 09:45 | -27.10431 | 153.13469 | 3192 ft | 279 kts | 84° |
| 2026-05-06 09:45 | -27.10165 | 153.15613 | 3007 ft | 276 kts | 84° |
| 2026-05-06 09:46 | -27.09910 | 153.17705 | 3000 ft | 267 kts | 84° |
| 2026-05-06 09:46 | -27.09914 | 153.19675 | 3009 ft | 241 kts | 99° |
| 2026-05-06 09:46 | -27.10395 | 153.21422 | 3010 ft | 232 kts | 119° |
| 2026-05-06 09:46 | -27.11378 | 153.22835 | 3016 ft | 231 kts | 139° |
| 2026-05-06 09:47 | -27.12778 | 153.23726 | 3011 ft | 233 kts | 161° |
| 2026-05-06 09:47 | -27.14349 | 153.23947 | 3004 ft | 219 kts | 182° |
| 2026-05-06 09:47 | -27.15753 | 153.23553 | 3001 ft | 202 kts | 202° |
| 2026-05-06 09:47 | -27.16978 | 153.22852 | 3009 ft | 194 kts | 205° |
| 2026-05-06 09:48 | -27.18175 | 153.22168 | 3017 ft | 192 kts | 203° |
| 2026-05-06 09:48 | -27.19363 | 153.21491 | 3012 ft | 191 kts | 204° |
| 2026-05-06 09:48 | -27.20548 | 153.20817 | 3012 ft | 191 kts | 204° |
| 2026-05-06 09:48 | -27.21738 | 153.20139 | 2950 ft | 193 kts | 204° |
| 2026-05-06 09:49 | -27.22932 | 153.19458 | 2749 ft | 192 kts | 204° |
| 2026-05-06 09:49 | -27.24104 | 153.18789 | 2545 ft | 186 kts | 203° |
| 2026-05-06 09:49 | -27.25242 | 153.18141 | 2279 ft | 180 kts | 204° |
| 2026-05-06 09:49 | -27.26321 | 153.17525 | 2041 ft | 169 kts | 204° |
| 2026-05-06 09:50 | -27.27328 | 153.16950 | 1831 ft | 157 kts | 202° |
| 2026-05-06 09:50 | -27.28267 | 153.16414 | 1632 ft | 145 kts | 203° |
| 2026-05-06 09:50 | -27.29131 | 153.15921 | 1444 ft | 136 kts | 202° |
| 2026-05-06 09:50 | -27.29950 | 153.15454 | 1271 ft | 130 kts | 202° |
| 2026-05-06 09:51 | -27.30756 | 153.14995 | 1092 ft | 130 kts | 202° |
| 2026-05-06 09:51 | -27.31564 | 153.14534 | 934 ft | 129 kts | 204° |
| 2026-05-06 09:51 | -27.32346 | 153.14088 | 770 ft | 125 kts | 203° |
| 2026-05-06 09:51 | -27.33124 | 153.13626 | 617 ft | 128 kts | 205° |
| 2026-05-06 09:52 | -27.33918 | 153.13180 | 403 ft | 126 kts | 202° |
| 2026-05-06 09:52 | -27.34703 | 153.12740 | 252 ft | 127 kts | 204° |
| 2026-05-06 09:52 | -27.35484 | 153.12296 | 111 ft | 126 kts | 206° |
| 2026-05-06 09:52 | -27.36241 | 153.11864 | 20 ft | 108 kts | 207° |
| 2026-05-06 09:53 | -27.36690 | 153.11613 | 19 ft | 43 kts | 200° |
| 2026-05-06 09:53 | -27.36837 | 153.11584 | 18 ft | 25 kts | 183° |
| 2026-05-06 09:53 | -27.36972 | 153.11588 | 18 ft | 8 kts | 175° |
| 2026-05-06 09:53 | -27.36992 | 153.11589 | 18 ft | 1 kts | 176° |
| 2026-05-06 09:54 | -27.37006 | 153.11590 | 18 ft | 2 kts | 176° |
| 2026-05-06 09:54 | -27.37012 | 153.11590 | 18 ft | 4 kts | 175° |
| 2026-05-06 09:54 | -27.37073 | 153.11641 | 18 ft | 17 kts | 122° |
| 2026-05-06 09:54 | -27.37171 | 153.11658 | 18 ft | 18 kts | 207° |
| 2026-05-06 09:55 | -27.37289 | 153.11596 | 18 ft | 18 kts | 189° |
| 2026-05-06 09:55 | -27.37366 | 153.11704 | 18 ft | 20 kts | 117° |
| 2026-05-06 09:55 | -27.37435 | 153.11855 | 18 ft | 23 kts | 117° |
| 2026-05-06 09:55 | -27.37514 | 153.12027 | 18 ft | 26 kts | 117° |
| 2026-05-06 09:56 | -27.37600 | 153.12217 | 18 ft | 25 kts | 118° |
| 2026-05-06 09:56 | -27.37656 | 153.12339 | 18 ft | 18 kts | 117° |
| 2026-05-06 09:56 | -27.37720 | 153.12476 | 19 ft | 21 kts | 118° |
| 2026-05-06 09:56 | -27.37792 | 153.12632 | 18 ft | 24 kts | 117° |
| 2026-05-06 09:57 | -27.37821 | 153.12698 | 19 ft | 0 kts | 116° |
| 2026-05-06 09:57 | -27.37828 | 153.12715 | 18 ft | 10 kts | 116° |
| 2026-05-06 09:58 | -27.37878 | 153.12805 | 18 ft | 15 kts | 142° |
| 2026-05-06 09:58 | -27.37981 | 153.12769 | 18 ft | 18 kts | 207° |
| 2026-05-06 09:58 | -27.38100 | 153.12702 | 18 ft | 21 kts | 207° |
| 2026-05-06 09:58 | -27.38237 | 153.12622 | 18 ft | 24 kts | 207° |
| 2026-05-06 09:59 | -27.38394 | 153.12534 | 18 ft | 27 kts | 207° |
| 2026-05-06 09:59 | -27.38446 | 153.12437 | 19 ft | 15 kts | 320° |
| 2026-05-06 09:59 | -27.38336 | 153.12404 | 18 ft | 18 kts | 349° |
| 2026-05-06 09:59 | -27.38226 | 153.12353 | 18 ft | 17 kts | 298° |
| 2026-05-06 10:00 | -27.38203 | 153.12276 | 18 ft | 9 kts | 288° |
| 2026-05-06 10:00 | -27.38174 | 153.12208 | 18 ft | 7 kts | 288° |
| 2026-05-06 10:00 | -27.38209 | 153.12190 | 18 ft | 7 kts | 188° |
| 2026-05-06 10:00 | -27.38242 | 153.12182 | 19 ft | 3 kts | 192° |
| 2026-05-06 10:01 | -27.38245 | 153.12181 | 19 ft | 0 kts | 192° |